sensor_id;sensor_type;location;lat;lon;timestamp;P1;durP1;ratioP1;P2;durP2;ratioP2
59830;SDS011;45711;50.108;13.712;2023-09-08T00:02:26;13.98;;;6.18;;
59830;SDS011;45711;50.108;13.712;2023-09-08T00:04:53;8.32;;;5.38;;
59830;SDS011;45711;50.108;13.712;2023-09-08T00:07:19;8.02;;;5.38;;
59830;SDS011;45711;50.108;13.712;2023-09-08T00:09:45;8.32;;;5.07;;
59830;SDS011;45711;50.108;13.712;2023-09-08T00:12:11;22.55;;;8.75;;
59830;SDS011;45711;50.108;13.712;2023-09-08T00:14:37;10.60;;;5.32;;
59830;SDS011;45711;50.108;13.712;2023-09-08T00:17:04;13.10;;;5.95;;
59830;SDS011;45711;50.108;13.712;2023-09-08T00:19:29;8.65;;;5.75;;
59830;SDS011;45711;50.108;13.712;2023-09-08T00:21:56;9.65;;;5.72;;
59830;SDS011;45711;50.108;13.712;2023-09-08T00:24:23;13.50;;;5.20;;
59830;SDS011;45711;50.108;13.712;2023-09-08T00:26:49;8.43;;;5.35;;
59830;SDS011;45711;50.108;13.712;2023-09-08T00:29:14;11.07;;;5.45;;
59830;SDS011;45711;50.108;13.712;2023-09-08T00:31:41;10.30;;;5.47;;
59830;SDS011;45711;50.108;13.712;2023-09-08T00:34:06;13.15;;;5.15;;
59830;SDS011;45711;50.108;13.712;2023-09-08T00:36:32;9.73;;;5.80;;
59830;SDS011;45711;50.108;13.712;2023-09-08T00:38:59;8.93;;;6.68;;
59830;SDS011;45711;50.108;13.712;2023-09-08T00:41:25;12.73;;;7.50;;
59830;SDS011;45711;50.108;13.712;2023-09-08T00:43:50;13.52;;;6.05;;
59830;SDS011;45711;50.108;13.712;2023-09-08T00:46:16;13.13;;;6.20;;
59830;SDS011;45711;50.108;13.712;2023-09-08T00:48:42;13.70;;;5.68;;
59830;SDS011;45711;50.108;13.712;2023-09-08T00:51:08;10.50;;;6.20;;
59830;SDS011;45711;50.108;13.712;2023-09-08T00:53:35;10.52;;;5.78;;
59830;SDS011;45711;50.108;13.712;2023-09-08T00:56:02;14.18;;;5.90;;
59830;SDS011;45711;50.108;13.712;2023-09-08T00:58:29;9.52;;;5.43;;
59830;SDS011;45711;50.108;13.712;2023-09-08T01:00:55;13.90;;;5.47;;
59830;SDS011;45711;50.108;13.712;2023-09-08T01:03:22;10.32;;;5.18;;
59830;SDS011;45711;50.108;13.712;2023-09-08T01:05:48;10.48;;;5.50;;
59830;SDS011;45711;50.108;13.712;2023-09-08T01:08:14;14.18;;;5.68;;
59830;SDS011;45711;50.108;13.712;2023-09-08T01:10:41;10.38;;;5.60;;
59830;SDS011;45711;50.108;13.712;2023-09-08T01:13:08;12.90;;;5.15;;
59830;SDS011;45711;50.108;13.712;2023-09-08T01:15:34;10.57;;;5.72;;
59830;SDS011;45711;50.108;13.712;2023-09-08T01:18:00;7.38;;;4.88;;
59830;SDS011;45711;50.108;13.712;2023-09-08T01:20:27;11.15;;;5.43;;
59830;SDS011;45711;50.108;13.712;2023-09-08T01:23:01;11.30;;;5.30;;
59830;SDS011;45711;50.108;13.712;2023-09-08T01:25:35;12.23;;;5.63;;
59830;SDS011;45711;50.108;13.712;2023-09-08T01:28:05;9.70;;;5.53;;
59830;SDS011;45711;50.108;13.712;2023-09-08T01:30:31;13.45;;;5.43;;
59830;SDS011;45711;50.108;13.712;2023-09-08T01:32:59;9.48;;;5.50;;
59830;SDS011;45711;50.108;13.712;2023-09-08T01:35:25;10.63;;;5.78;;
59830;SDS011;45711;50.108;13.712;2023-09-08T01:37:50;12.18;;;5.60;;
59830;SDS011;45711;50.108;13.712;2023-09-08T01:40:16;11.07;;;5.55;;
59830;SDS011;45711;50.108;13.712;2023-09-08T01:42:45;8.32;;;5.50;;
59830;SDS011;45711;50.108;13.712;2023-09-08T01:45:10;8.00;;;5.18;;
59830;SDS011;45711;50.108;13.712;2023-09-08T01:47:36;10.98;;;5.72;;
59830;SDS011;45711;50.108;13.712;2023-09-08T01:50:03;9.18;;;6.10;;
59830;SDS011;45711;50.108;13.712;2023-09-08T01:52:29;10.70;;;5.90;;
59830;SDS011;45711;50.108;13.712;2023-09-08T01:54:54;9.70;;;5.55;;
59830;SDS011;45711;50.108;13.712;2023-09-08T01:57:20;9.38;;;5.05;;
59830;SDS011;45711;50.108;13.712;2023-09-08T01:59:47;8.85;;;6.25;;
59830;SDS011;45711;50.108;13.712;2023-09-08T02:02:13;10.65;;;6.45;;
59830;SDS011;45711;50.108;13.712;2023-09-08T02:04:39;16.45;;;5.90;;
59830;SDS011;45711;50.108;13.712;2023-09-08T02:07:04;14.13;;;5.68;;
59830;SDS011;45711;50.108;13.712;2023-09-08T02:09:31;8.50;;;5.63;;
59830;SDS011;45711;50.108;13.712;2023-09-08T02:11:57;14.88;;;5.80;;
59830;SDS011;45711;50.108;13.712;2023-09-08T02:14:22;11.63;;;6.25;;
59830;SDS011;45711;50.108;13.712;2023-09-08T02:16:49;10.60;;;6.65;;
59830;SDS011;45711;50.108;13.712;2023-09-08T02:19:15;11.52;;;6.68;;
59830;SDS011;45711;50.108;13.712;2023-09-08T02:21:40;9.35;;;6.03;;
59830;SDS011;45711;50.108;13.712;2023-09-08T02:24:06;9.00;;;5.07;;
59830;SDS011;45711;50.108;13.712;2023-09-08T02:26:32;11.00;;;6.57;;
59830;SDS011;45711;50.108;13.712;2023-09-08T02:28:58;13.23;;;5.65;;
59830;SDS011;45711;50.108;13.712;2023-09-08T02:31:26;7.50;;;4.78;;
59830;SDS011;45711;50.108;13.712;2023-09-08T02:33:53;9.60;;;5.07;;
59830;SDS011;45711;50.108;13.712;2023-09-08T02:36:18;9.32;;;5.40;;
59830;SDS011;45711;50.108;13.712;2023-09-08T02:38:50;6.93;;;5.00;;
59830;SDS011;45711;50.108;13.712;2023-09-08T02:41:15;11.68;;;5.13;;
59830;SDS011;45711;50.108;13.712;2023-09-08T02:43:41;8.70;;;5.20;;
59830;SDS011;45711;50.108;13.712;2023-09-08T02:46:06;7.25;;;5.30;;
59830;SDS011;45711;50.108;13.712;2023-09-08T02:48:34;10.80;;;5.90;;
59830;SDS011;45711;50.108;13.712;2023-09-08T02:51:01;10.60;;;6.28;;
59830;SDS011;45711;50.108;13.712;2023-09-08T02:53:26;7.60;;;5.38;;
59830;SDS011;45711;50.108;13.712;2023-09-08T02:55:53;8.32;;;6.00;;
59830;SDS011;45711;50.108;13.712;2023-09-08T02:58:19;13.32;;;6.43;;
59830;SDS011;45711;50.108;13.712;2023-09-08T03:00:44;8.60;;;5.60;;
59830;SDS011;45711;50.108;13.712;2023-09-08T03:03:10;14.35;;;6.40;;
59830;SDS011;45711;50.108;13.712;2023-09-08T03:05:36;8.90;;;5.82;;
59830;SDS011;45711;50.108;13.712;2023-09-08T03:08:03;11.82;;;6.20;;
59830;SDS011;45711;50.108;13.712;2023-09-08T03:10:30;18.05;;;5.93;;
59830;SDS011;45711;50.108;13.712;2023-09-08T03:12:59;9.68;;;6.45;;
59830;SDS011;45711;50.108;13.712;2023-09-08T03:15:24;9.30;;;5.43;;
59830;SDS011;45711;50.108;13.712;2023-09-08T03:17:53;9.60;;;5.80;;
59830;SDS011;45711;50.108;13.712;2023-09-08T03:20:19;11.35;;;5.20;;
59830;SDS011;45711;50.108;13.712;2023-09-08T03:22:44;14.60;;;4.88;;
59830;SDS011;45711;50.108;13.712;2023-09-08T03:25:11;7.75;;;4.88;;
59830;SDS011;45711;50.108;13.712;2023-09-08T03:27:38;9.57;;;5.05;;
59830;SDS011;45711;50.108;13.712;2023-09-08T03:30:05;9.52;;;5.65;;
59830;SDS011;45711;50.108;13.712;2023-09-08T03:32:31;10.02;;;5.75;;
59830;SDS011;45711;50.108;13.712;2023-09-08T03:34:56;8.50;;;5.50;;
59830;SDS011;45711;50.108;13.712;2023-09-08T03:37:22;10.43;;;5.88;;
59830;SDS011;45711;50.108;13.712;2023-09-08T03:39:47;11.13;;;5.38;;
59830;SDS011;45711;50.108;13.712;2023-09-08T03:42:14;10.77;;;5.88;;
59830;SDS011;45711;50.108;13.712;2023-09-08T03:44:40;9.40;;;5.78;;
59830;SDS011;45711;50.108;13.712;2023-09-08T03:47:05;11.48;;;5.90;;
59830;SDS011;45711;50.108;13.712;2023-09-08T03:49:31;12.77;;;5.10;;
59830;SDS011;45711;50.108;13.712;2023-09-08T03:51:58;35.97;;;5.30;;
59830;SDS011;45711;50.108;13.712;2023-09-08T03:54:23;7.00;;;5.40;;
59830;SDS011;45711;50.108;13.712;2023-09-08T03:56:49;9.70;;;5.30;;
59830;SDS011;45711;50.108;13.712;2023-09-08T03:59:16;12.30;;;5.32;;
59830;SDS011;45711;50.108;13.712;2023-09-08T04:01:41;9.45;;;4.85;;
59830;SDS011;45711;50.108;13.712;2023-09-08T04:04:07;9.02;;;5.00;;
59830;SDS011;45711;50.108;13.712;2023-09-08T04:06:33;8.73;;;5.57;;
59830;SDS011;45711;50.108;13.712;2023-09-08T04:08:59;8.70;;;5.53;;
59830;SDS011;45711;50.108;13.712;2023-09-08T04:11:24;10.82;;;5.60;;
59830;SDS011;45711;50.108;13.712;2023-09-08T04:13:50;9.00;;;5.03;;
59830;SDS011;45711;50.108;13.712;2023-09-08T04:16:18;9.20;;;5.05;;
59830;SDS011;45711;50.108;13.712;2023-09-08T04:18:43;11.95;;;5.18;;
59830;SDS011;45711;50.108;13.712;2023-09-08T04:21:09;19.67;;;5.82;;
59830;SDS011;45711;50.108;13.712;2023-09-08T04:23:35;12.13;;;6.15;;
59830;SDS011;45711;50.108;13.712;2023-09-08T04:26:00;37.78;;;6.38;;
59830;SDS011;45711;50.108;13.712;2023-09-08T04:28:26;99.78;;;8.70;;
59830;SDS011;45711;50.108;13.712;2023-09-08T04:30:52;121.50;;;9.25;;
59830;SDS011;45711;50.108;13.712;2023-09-08T04:33:19;51.45;;;7.60;;
59830;SDS011;45711;50.108;13.712;2023-09-08T04:35:44;15.15;;;5.90;;
59830;SDS011;45711;50.108;13.712;2023-09-08T04:38:10;19.25;;;5.93;;
59830;SDS011;45711;50.108;13.712;2023-09-08T04:40:36;49.38;;;6.93;;
59830;SDS011;45711;50.108;13.712;2023-09-08T04:43:01;11.68;;;5.40;;
59830;SDS011;45711;50.108;13.712;2023-09-08T04:45:27;89.80;;;7.80;;
59830;SDS011;45711;50.108;13.712;2023-09-08T04:47:53;136.52;;;11.18;;
59830;SDS011;45711;50.108;13.712;2023-09-08T04:50:20;159.20;;;10.60;;
59830;SDS011;45711;50.108;13.712;2023-09-08T04:52:45;63.13;;;7.25;;
59830;SDS011;45711;50.108;13.712;2023-09-08T04:55:11;47.45;;;7.85;;
59830;SDS011;45711;50.108;13.712;2023-09-08T04:57:37;62.10;;;8.55;;
59830;SDS011;45711;50.108;13.712;2023-09-08T05:00:02;51.63;;;7.13;;
59830;SDS011;45711;50.108;13.712;2023-09-08T05:02:28;54.45;;;7.13;;
59830;SDS011;45711;50.108;13.712;2023-09-08T05:04:54;38.25;;;7.05;;
59830;SDS011;45711;50.108;13.712;2023-09-08T05:07:21;21.33;;;6.00;;
59830;SDS011;45711;50.108;13.712;2023-09-08T05:09:46;14.95;;;5.13;;
59830;SDS011;45711;50.108;13.712;2023-09-08T05:12:12;9.15;;;5.60;;
59830;SDS011;45711;50.108;13.712;2023-09-08T05:14:38;13.02;;;5.20;;
59830;SDS011;45711;50.108;13.712;2023-09-08T05:17:03;18.55;;;5.70;;
59830;SDS011;45711;50.108;13.712;2023-09-08T05:19:29;12.73;;;5.65;;
59830;SDS011;45711;50.108;13.712;2023-09-08T05:21:55;16.73;;;6.22;;
59830;SDS011;45711;50.108;13.712;2023-09-08T05:24:22;11.82;;;5.63;;
59830;SDS011;45711;50.108;13.712;2023-09-08T05:26:48;11.05;;;5.60;;
59830;SDS011;45711;50.108;13.712;2023-09-08T05:29:22;22.67;;;5.72;;
59830;SDS011;45711;50.108;13.712;2023-09-08T05:31:53;17.50;;;6.13;;
59830;SDS011;45711;50.108;13.712;2023-09-08T05:34:19;22.17;;;5.65;;
59830;SDS011;45711;50.108;13.712;2023-09-08T05:36:44;9.68;;;5.43;;
59830;SDS011;45711;50.108;13.712;2023-09-08T05:39:10;14.65;;;5.40;;
59830;SDS011;45711;50.108;13.712;2023-09-08T05:41:42;10.20;;;5.10;;
59830;SDS011;45711;50.108;13.712;2023-09-08T06:34:19;33.17;;;8.23;;
59830;SDS011;45711;50.108;13.712;2023-09-08T06:36:49;23.70;;;7.75;;
59830;SDS011;45711;50.108;13.712;2023-09-08T06:39:14;22.77;;;7.32;;
59830;SDS011;45711;50.108;13.712;2023-09-08T06:41:40;21.80;;;7.68;;
59830;SDS011;45711;50.108;13.712;2023-09-08T06:44:05;24.45;;;7.45;;
59830;SDS011;45711;50.108;13.712;2023-09-08T06:46:31;18.95;;;7.13;;
59830;SDS011;45711;50.108;13.712;2023-09-08T06:48:57;32.95;;;7.55;;
59830;SDS011;45711;50.108;13.712;2023-09-08T06:51:24;25.95;;;7.50;;
59830;SDS011;45711;50.108;13.712;2023-09-08T06:53:53;13.88;;;7.50;;
59830;SDS011;45711;50.108;13.712;2023-09-08T06:56:20;20.60;;;7.90;;
59830;SDS011;45711;50.108;13.712;2023-09-08T06:58:46;14.25;;;6.80;;
59830;SDS011;45711;50.108;13.712;2023-09-08T07:01:11;13.75;;;6.63;;
59830;SDS011;45711;50.108;13.712;2023-09-08T07:03:37;21.55;;;7.22;;
59830;SDS011;45711;50.108;13.712;2023-09-08T07:06:03;15.63;;;6.82;;
59830;SDS011;45711;50.108;13.712;2023-09-08T07:08:30;29.65;;;7.40;;
59830;SDS011;45711;50.108;13.712;2023-09-08T07:10:56;16.60;;;7.15;;
59830;SDS011;45711;50.108;13.712;2023-09-08T07:13:21;17.85;;;7.68;;
59830;SDS011;45711;50.108;13.712;2023-09-08T07:15:47;20.60;;;7.32;;
59830;SDS011;45711;50.108;13.712;2023-09-08T07:18:12;14.73;;;6.80;;
59830;SDS011;45711;50.108;13.712;2023-09-08T07:20:38;24.88;;;7.53;;
59830;SDS011;45711;50.108;13.712;2023-09-08T07:23:03;22.92;;;7.72;;
59830;SDS011;45711;50.108;13.712;2023-09-08T07:25:30;23.02;;;7.15;;
59830;SDS011;45711;50.108;13.712;2023-09-08T07:27:56;24.15;;;7.55;;
59830;SDS011;45711;50.108;13.712;2023-09-08T07:30:21;12.30;;;7.32;;
59830;SDS011;45711;50.108;13.712;2023-09-08T07:32:47;40.30;;;7.68;;
59830;SDS011;45711;50.108;13.712;2023-09-08T07:35:13;15.75;;;6.68;;
59830;SDS011;45711;50.108;13.712;2023-09-08T07:37:42;19.63;;;6.78;;
59830;SDS011;45711;50.108;13.712;2023-09-08T07:40:08;19.02;;;7.93;;
59830;SDS011;45711;50.108;13.712;2023-09-08T07:42:36;15.52;;;7.43;;
59830;SDS011;45711;50.108;13.712;2023-09-08T07:45:02;17.58;;;6.68;;
59830;SDS011;45711;50.108;13.712;2023-09-08T07:47:28;18.58;;;5.30;;
59830;SDS011;45711;50.108;13.712;2023-09-08T07:49:53;22.27;;;5.93;;
59830;SDS011;45711;50.108;13.712;2023-09-08T07:52:44;20.85;;;7.40;;
59830;SDS011;45711;50.108;13.712;2023-09-08T07:55:09;9.68;;;4.40;;
59830;SDS011;45711;50.108;13.712;2023-09-08T07:57:36;20.52;;;8.63;;
59830;SDS011;45711;50.108;13.712;2023-09-08T08:00:02;21.52;;;7.32;;
59830;SDS011;45711;50.108;13.712;2023-09-08T08:02:29;14.65;;;4.43;;
59830;SDS011;45711;50.108;13.712;2023-09-08T08:04:56;11.63;;;5.53;;
59830;SDS011;45711;50.108;13.712;2023-09-08T08:07:22;14.57;;;7.18;;
59830;SDS011;45711;50.108;13.712;2023-09-08T08:09:47;36.72;;;8.38;;
59830;SDS011;45711;50.108;13.712;2023-09-08T08:12:13;18.90;;;7.95;;
59830;SDS011;45711;50.108;13.712;2023-09-08T08:14:40;20.85;;;7.53;;
59830;SDS011;45711;50.108;13.712;2023-09-08T08:17:06;18.23;;;8.43;;
59830;SDS011;45711;50.108;13.712;2023-09-08T08:19:31;13.15;;;5.93;;
59830;SDS011;45711;50.108;13.712;2023-09-08T08:21:57;11.23;;;4.97;;
59830;SDS011;45711;50.108;13.712;2023-09-08T08:24:23;18.85;;;6.25;;
59830;SDS011;45711;50.108;13.712;2023-09-08T08:26:51;20.95;;;9.10;;
59830;SDS011;45711;50.108;13.712;2023-09-08T08:29:17;16.83;;;8.15;;
59830;SDS011;45711;50.108;13.712;2023-09-08T08:31:44;17.38;;;8.60;;
59830;SDS011;45711;50.108;13.712;2023-09-08T08:34:09;14.93;;;4.40;;
59830;SDS011;45711;50.108;13.712;2023-09-08T08:36:35;19.90;;;7.75;;
59830;SDS011;45711;50.108;13.712;2023-09-08T08:39:06;11.85;;;5.32;;
59830;SDS011;45711;50.108;13.712;2023-09-08T08:41:32;11.32;;;7.85;;
59830;SDS011;45711;50.108;13.712;2023-09-08T08:44:11;9.45;;;4.82;;
59830;SDS011;45711;50.108;13.712;2023-09-08T08:46:40;11.68;;;5.68;;
59830;SDS011;45711;50.108;13.712;2023-09-08T08:49:15;11.02;;;5.00;;
59830;SDS011;45711;50.108;13.712;2023-09-08T08:51:42;11.90;;;6.63;;
59830;SDS011;45711;50.108;13.712;2023-09-08T08:54:10;11.93;;;5.97;;
59830;SDS011;45711;50.108;13.712;2023-09-08T08:56:37;10.65;;;5.68;;
59830;SDS011;45711;50.108;13.712;2023-09-08T08:59:03;10.23;;;5.45;;
59830;SDS011;45711;50.108;13.712;2023-09-08T09:01:29;7.90;;;4.53;;
59830;SDS011;45711;50.108;13.712;2023-09-08T09:03:56;9.07;;;5.07;;
59830;SDS011;45711;50.108;13.712;2023-09-08T09:06:24;12.57;;;5.13;;
59830;SDS011;45711;50.108;13.712;2023-09-08T09:08:50;10.15;;;4.88;;
59830;SDS011;45711;50.108;13.712;2023-09-08T09:11:15;10.50;;;5.20;;
59830;SDS011;45711;50.108;13.712;2023-09-08T09:13:41;7.80;;;4.78;;
59830;SDS011;45711;50.108;13.712;2023-09-08T09:16:07;7.32;;;4.90;;
59830;SDS011;45711;50.108;13.712;2023-09-08T09:18:39;10.70;;;5.05;;
59830;SDS011;45711;50.108;13.712;2023-09-08T09:21:19;9.50;;;4.55;;
59830;SDS011;45711;50.108;13.712;2023-09-08T09:23:46;8.85;;;4.80;;
59830;SDS011;45711;50.108;13.712;2023-09-08T09:26:12;10.55;;;4.90;;
59830;SDS011;45711;50.108;13.712;2023-09-08T09:28:49;7.05;;;3.85;;
59830;SDS011;45711;50.108;13.712;2023-09-08T09:31:17;7.15;;;4.57;;
59830;SDS011;45711;50.108;13.712;2023-09-08T09:33:42;9.10;;;4.25;;
59830;SDS011;45711;50.108;13.712;2023-09-08T09:36:08;5.18;;;3.83;;
59830;SDS011;45711;50.108;13.712;2023-09-08T09:38:34;8.40;;;3.90;;
59830;SDS011;45711;50.108;13.712;2023-09-08T09:41:01;6.45;;;4.22;;
59830;SDS011;45711;50.108;13.712;2023-09-08T09:43:27;7.72;;;3.97;;
59830;SDS011;45711;50.108;13.712;2023-09-08T09:45:54;11.75;;;4.22;;
59830;SDS011;45711;50.108;13.712;2023-09-08T09:48:21;7.70;;;4.07;;
59830;SDS011;45711;50.108;13.712;2023-09-08T09:50:48;7.93;;;4.45;;
59830;SDS011;45711;50.108;13.712;2023-09-08T09:53:14;5.75;;;3.78;;
59830;SDS011;45711;50.108;13.712;2023-09-08T09:55:41;5.78;;;3.72;;
59830;SDS011;45711;50.108;13.712;2023-09-08T09:58:09;10.07;;;3.80;;
59830;SDS011;45711;50.108;13.712;2023-09-08T10:00:36;10.65;;;4.03;;
59830;SDS011;45711;50.108;13.712;2023-09-08T10:03:03;9.57;;;4.50;;
59830;SDS011;45711;50.108;13.712;2023-09-08T10:05:29;5.88;;;3.88;;
59830;SDS011;45711;50.108;13.712;2023-09-08T10:07:55;6.95;;;4.18;;
59830;SDS011;45711;50.108;13.712;2023-09-08T10:10:21;8.02;;;4.15;;
59830;SDS011;45711;50.108;13.712;2023-09-08T10:12:49;5.90;;;3.80;;
59830;SDS011;45711;50.108;13.712;2023-09-08T10:15:20;6.90;;;4.05;;
59830;SDS011;45711;50.108;13.712;2023-09-08T10:17:47;9.50;;;3.75;;
59830;SDS011;45711;50.108;13.712;2023-09-08T10:20:17;5.78;;;3.78;;
59830;SDS011;45711;50.108;13.712;2023-09-08T10:22:46;11.38;;;3.95;;
59830;SDS011;45711;50.108;13.712;2023-09-08T10:25:15;6.07;;;4.15;;
59830;SDS011;45711;50.108;13.712;2023-09-08T10:27:43;7.10;;;3.70;;
59830;SDS011;45711;50.108;13.712;2023-09-08T10:30:09;6.85;;;3.95;;
59830;SDS011;45711;50.108;13.712;2023-09-08T10:32:38;5.80;;;3.53;;
59830;SDS011;45711;50.108;13.712;2023-09-08T10:35:06;6.85;;;3.67;;
59830;SDS011;45711;50.108;13.712;2023-09-08T10:37:33;8.23;;;3.92;;
59830;SDS011;45711;50.108;13.712;2023-09-08T10:42:47;6.55;;;3.70;;
59830;SDS011;45711;50.108;13.712;2023-09-08T10:45:16;7.03;;;3.38;;
59830;SDS011;45711;50.108;13.712;2023-09-08T10:50:31;5.78;;;3.83;;
59830;SDS011;45711;50.108;13.712;2023-09-08T10:53:08;15.65;;;4.38;;
59830;SDS011;45711;50.108;13.712;2023-09-08T10:55:36;10.57;;;3.92;;
59830;SDS011;45711;50.108;13.712;2023-09-08T10:58:05;7.82;;;4.38;;
59830;SDS011;45711;50.108;13.712;2023-09-08T11:00:42;12.95;;;3.78;;
59830;SDS011;45711;50.108;13.712;2023-09-08T11:03:10;6.65;;;3.80;;
59830;SDS011;45711;50.108;13.712;2023-09-08T11:05:37;5.13;;;3.60;;
59830;SDS011;45711;50.108;13.712;2023-09-08T11:08:02;5.57;;;3.55;;
59830;SDS011;45711;50.108;13.712;2023-09-08T11:10:29;5.65;;;3.65;;
59830;SDS011;45711;50.108;13.712;2023-09-08T11:12:55;17.40;;;3.95;;
59830;SDS011;45711;50.108;13.712;2023-09-08T11:15:21;6.53;;;3.40;;
59830;SDS011;45711;50.108;13.712;2023-09-08T11:17:47;6.10;;;3.30;;
59830;SDS011;45711;50.108;13.712;2023-09-08T11:20:25;6.47;;;3.40;;
59830;SDS011;45711;50.108;13.712;2023-09-08T11:22:51;6.15;;;3.28;;
59830;SDS011;45711;50.108;13.712;2023-09-08T11:25:16;6.68;;;3.72;;
59830;SDS011;45711;50.108;13.712;2023-09-08T11:27:42;6.18;;;3.60;;
59830;SDS011;45711;50.108;13.712;2023-09-08T11:30:10;6.28;;;3.47;;
59830;SDS011;45711;50.108;13.712;2023-09-08T11:32:38;16.05;;;3.67;;
59830;SDS011;45711;50.108;13.712;2023-09-08T11:35:05;7.22;;;3.53;;
59830;SDS011;45711;50.108;13.712;2023-09-08T11:37:34;5.05;;;3.22;;
59830;SDS011;45711;50.108;13.712;2023-09-08T11:40:00;9.15;;;3.60;;
59830;SDS011;45711;50.108;13.712;2023-09-08T11:42:28;5.63;;;3.63;;
59830;SDS011;45711;50.108;13.712;2023-09-08T11:44:54;7.35;;;3.60;;
59830;SDS011;45711;50.108;13.712;2023-09-08T11:47:22;7.97;;;3.55;;
59830;SDS011;45711;50.108;13.712;2023-09-08T11:49:48;6.05;;;3.30;;
59830;SDS011;45711;50.108;13.712;2023-09-08T11:52:17;6.45;;;3.60;;
59830;SDS011;45711;50.108;13.712;2023-09-08T11:54:44;7.25;;;3.22;;
59830;SDS011;45711;50.108;13.712;2023-09-08T11:57:12;5.53;;;3.60;;
59830;SDS011;45711;50.108;13.712;2023-09-08T11:59:43;7.03;;;3.20;;
59830;SDS011;45711;50.108;13.712;2023-09-08T12:02:13;6.05;;;3.22;;
59830;SDS011;45711;50.108;13.712;2023-09-08T12:04:38;6.22;;;3.40;;
59830;SDS011;45711;50.108;13.712;2023-09-08T12:07:05;7.30;;;3.00;;
59830;SDS011;45711;50.108;13.712;2023-09-08T12:09:31;5.82;;;3.75;;
59830;SDS011;45711;50.108;13.712;2023-09-08T12:11:58;7.38;;;3.80;;
59830;SDS011;45711;50.108;13.712;2023-09-08T12:14:27;9.38;;;4.28;;
59830;SDS011;45711;50.108;13.712;2023-09-08T12:17:04;7.43;;;4.82;;
59830;SDS011;45711;50.108;13.712;2023-09-08T12:19:32;10.20;;;3.78;;
59830;SDS011;45711;50.108;13.712;2023-09-08T12:21:59;7.28;;;3.78;;
59830;SDS011;45711;50.108;13.712;2023-09-08T12:24:47;9.10;;;3.20;;
59830;SDS011;45711;50.108;13.712;2023-09-08T12:27:23;5.95;;;3.75;;
59830;SDS011;45711;50.108;13.712;2023-09-08T12:29:52;10.93;;;3.85;;
59830;SDS011;45711;50.108;13.712;2023-09-08T12:32:19;4.70;;;3.22;;
59830;SDS011;45711;50.108;13.712;2023-09-08T12:34:45;11.70;;;3.50;;
59830;SDS011;45711;50.108;13.712;2023-09-08T12:37:11;8.15;;;3.80;;
59830;SDS011;45711;50.108;13.712;2023-09-08T12:42:03;11.25;;;4.43;;
59830;SDS011;45711;50.108;13.712;2023-09-08T12:44:33;7.45;;;3.70;;
59830;SDS011;45711;50.108;13.712;2023-09-08T12:46:58;5.05;;;3.40;;
59830;SDS011;45711;50.108;13.712;2023-09-08T12:49:24;5.43;;;3.70;;
59830;SDS011;45711;50.108;13.712;2023-09-08T12:51:52;8.27;;;3.50;;
59830;SDS011;45711;50.108;13.712;2023-09-08T12:54:18;6.45;;;3.30;;
59830;SDS011;45711;50.108;13.712;2023-09-08T12:56:43;6.55;;;3.50;;
59830;SDS011;45711;50.108;13.712;2023-09-08T12:59:09;8.90;;;4.25;;
59830;SDS011;45711;50.108;13.712;2023-09-08T13:01:36;8.07;;;4.07;;
59830;SDS011;45711;50.108;13.712;2023-09-08T13:04:01;8.48;;;3.35;;
59830;SDS011;45711;50.108;13.712;2023-09-08T13:06:27;5.45;;;3.30;;
59830;SDS011;45711;50.108;13.712;2023-09-08T13:08:53;5.43;;;3.38;;
59830;SDS011;45711;50.108;13.712;2023-09-08T13:11:20;5.63;;;3.67;;
59830;SDS011;45711;50.108;13.712;2023-09-08T13:13:46;7.30;;;3.80;;
59830;SDS011;45711;50.108;13.712;2023-09-08T13:16:14;4.93;;;3.47;;
59830;SDS011;45711;50.108;13.712;2023-09-08T13:18:43;7.40;;;3.60;;
59830;SDS011;45711;50.108;13.712;2023-09-08T13:21:10;5.95;;;4.28;;
59830;SDS011;45711;50.108;13.712;2023-09-08T13:23:35;5.80;;;3.50;;
59830;SDS011;45711;50.108;13.712;2023-09-08T13:26:01;4.85;;;3.45;;
59830;SDS011;45711;50.108;13.712;2023-09-08T13:28:26;8.57;;;3.63;;
59830;SDS011;45711;50.108;13.712;2023-09-08T13:30:52;5.70;;;3.63;;
59830;SDS011;45711;50.108;13.712;2023-09-08T13:33:18;7.53;;;3.47;;
59830;SDS011;45711;50.108;13.712;2023-09-08T13:35:45;5.60;;;3.40;;
59830;SDS011;45711;50.108;13.712;2023-09-08T13:38:10;9.02;;;3.50;;
59830;SDS011;45711;50.108;13.712;2023-09-08T13:40:36;4.72;;;3.05;;
59830;SDS011;45711;50.108;13.712;2023-09-08T13:43:01;5.82;;;3.33;;
59830;SDS011;45711;50.108;13.712;2023-09-08T13:45:27;5.07;;;3.22;;
59830;SDS011;45711;50.108;13.712;2023-09-08T13:47:53;7.10;;;3.75;;
59830;SDS011;45711;50.108;13.712;2023-09-08T13:50:18;5.80;;;3.50;;
59830;SDS011;45711;50.108;13.712;2023-09-08T13:52:45;4.70;;;3.10;;
59830;SDS011;45711;50.108;13.712;2023-09-08T13:55:11;5.55;;;3.25;;
59830;SDS011;45711;50.108;13.712;2023-09-08T13:57:36;6.45;;;3.53;;
59830;SDS011;45711;50.108;13.712;2023-09-08T14:00:02;9.05;;;3.53;;
59830;SDS011;45711;50.108;13.712;2023-09-08T14:02:29;4.63;;;3.10;;
59830;SDS011;45711;50.108;13.712;2023-09-08T14:04:54;11.65;;;2.97;;
59830;SDS011;45711;50.108;13.712;2023-09-08T14:07:20;6.68;;;3.40;;
59830;SDS011;45711;50.108;13.712;2023-09-08T14:09:46;8.23;;;3.83;;
59830;SDS011;45711;50.108;13.712;2023-09-08T14:12:12;7.90;;;3.63;;
59830;SDS011;45711;50.108;13.712;2023-09-08T14:14:38;5.10;;;3.80;;
59830;SDS011;45711;50.108;13.712;2023-09-08T14:17:03;7.90;;;3.78;;
59830;SDS011;45711;50.108;13.712;2023-09-08T14:19:29;8.52;;;4.05;;
59830;SDS011;45711;50.108;13.712;2023-09-08T14:21:55;7.15;;;3.40;;
59830;SDS011;45711;50.108;13.712;2023-09-08T14:24:21;6.32;;;3.03;;
59830;SDS011;45711;50.108;13.712;2023-09-08T14:26:48;10.82;;;3.38;;
59830;SDS011;45711;50.108;13.712;2023-09-08T14:29:15;7.10;;;3.08;;
59830;SDS011;45711;50.108;13.712;2023-09-08T14:31:41;7.88;;;3.63;;
59830;SDS011;45711;50.108;13.712;2023-09-08T14:34:08;3.50;;;2.78;;
59830;SDS011;45711;50.108;13.712;2023-09-08T14:36:34;4.95;;;3.20;;
59830;SDS011;45711;50.108;13.712;2023-09-08T14:38:59;5.35;;;3.40;;
59830;SDS011;45711;50.108;13.712;2023-09-08T14:41:25;5.05;;;3.22;;
59830;SDS011;45711;50.108;13.712;2023-09-08T14:43:52;4.80;;;3.28;;
59830;SDS011;45711;50.108;13.712;2023-09-08T14:46:18;6.70;;;3.10;;
59830;SDS011;45711;50.108;13.712;2023-09-08T14:48:44;6.97;;;3.30;;
59830;SDS011;45711;50.108;13.712;2023-09-08T14:51:10;4.80;;;3.33;;
59830;SDS011;45711;50.108;13.712;2023-09-08T14:53:35;4.43;;;3.30;;
59830;SDS011;45711;50.108;13.712;2023-09-08T14:56:01;5.95;;;2.97;;
59830;SDS011;45711;50.108;13.712;2023-09-08T14:58:28;4.03;;;3.05;;
59830;SDS011;45711;50.108;13.712;2023-09-08T15:01:00;6.80;;;3.20;;
59830;SDS011;45711;50.108;13.712;2023-09-08T15:03:32;8.40;;;3.35;;
59830;SDS011;45711;50.108;13.712;2023-09-08T15:05:58;7.07;;;3.20;;
59830;SDS011;45711;50.108;13.712;2023-09-08T15:08:24;9.77;;;3.22;;
59830;SDS011;45711;50.108;13.712;2023-09-08T15:10:50;6.05;;;2.88;;
59830;SDS011;45711;50.108;13.712;2023-09-08T15:13:18;6.78;;;2.63;;
59830;SDS011;45711;50.108;13.712;2023-09-08T15:15:47;24.55;;;3.72;;
59830;SDS011;45711;50.108;13.712;2023-09-08T15:18:14;8.02;;;3.00;;
59830;SDS011;45711;50.108;13.712;2023-09-08T15:20:49;7.13;;;3.10;;
59830;SDS011;45711;50.108;13.712;2023-09-08T15:23:15;5.68;;;3.28;;
59830;SDS011;45711;50.108;13.712;2023-09-08T15:25:41;10.18;;;3.50;;